Time;durP1;ratioP1;P1;durP2;ratioP2;P2;SDS_P1;SDS_P2;PMS_P1;PMS_P2;Temp;Humidity;BMP_temperature;BMP_pressure;BME280_temperature;BME280_humidity;BME280_pressure;Samples;Min_cycle;Max_cycle;Signal;HPM_P1;HPM_P2
2022/07/25 03:49:46;;;;;;;12.20;11.30;;;;;;;;;;4824024;26;20492;-92
2022/07/25 03:52:15;;;;;;;11.73;10.93;;;;;;;;;;4997422;28;20425;-94
2022/07/25 04:49:01;;;;;;;12.47;11.37;;;;;;;;;;6120969;23;20481;31
2022/07/25 04:51:40;;;;;;;11.03;10.13;;;;;;;;;;4955564;28;20435;-91
2022/07/25 04:54:09;;;;;;;9.97;9.33;;;;;;;;;;4954146;28;20482;-90
2022/07/25 04:56:38;;;;;;;12.53;11.30;;;;;;;;;;4954957;28;20893;-93
2022/07/25 05:12:32;;;;;;;10.93;10.03;;;;;;;;;;4330090;26;20511;-90
2022/07/25 05:15:05;;;;;;;11.03;10.30;;;;;;;;;;4991484;28;20436;-90
2022/07/25 05:17:46;;;;;;;14.43;11.00;;;;;;;;;;4993637;28;20448;-91
2022/07/25 05:20:13;;;;;;;10.87;10.17;;;;;;;;;;4993985;28;20494;-90
2022/07/25 05:22:51;;;;;;;10.80;9.80;;;;;;;;;;5010229;28;20438;-90
2022/07/25 05:25:20;;;;;;;11.10;10.00;;;;;;;;;;5000060;28;20431;-90
2022/07/25 05:27:46;;;;;;;11.53;10.70;;;;;;;;;;4998617;22;1622627;-88
2022/07/25 05:30:30;;;;;;;10.23;9.40;;;;;;;;;;5017876;28;20191;-91
2022/07/25 05:33:08;;;;;;;9.63;8.73;;;;;;;;;;5005936;28;20475;-91
2022/07/25 05:35:38;;;;;;;11.40;10.37;;;;;;;;;;5012885;28;20482;-90
2022/07/25 05:38:05;;;;;;;10.37;9.77;;;;;;;;;;5016810;28;20874;-88
2022/07/25 05:40:34;;;;;;;9.87;8.80;;;;;;;;;;5018691;28;20458;-91
2022/07/25 05:43:03;;;;;;;11.90;10.90;;;;;;;;;;5010591;28;20447;-87
2022/07/25 05:45:31;;;;;;;10.60;9.83;;;;;;;;;;5019212;28;20466;-90
2022/07/25 05:48:00;;;;;;;8.30;7.90;;;;;;;;;;5004579;28;20699;-90
2022/07/25 05:50:27;;;;;;;8.53;7.80;;;;;;;;;;5018164;28;20948;-90
2022/07/25 05:52:53;;;;;;;7.90;7.40;;;;;;;;;;5019322;28;20442;-91
2022/07/25 05:55:28;;;;;;;8.53;7.80;;;;;;;;;;5012073;28;20775;-90
2022/07/25 05:57:58;;;;;;;7.20;6.80;;;;;;;;;;5010841;28;20933;-89
2022/07/25 06:00:43;;;;;;;;;;;;;;;;;;;;;
2022/07/25 06:03:19;;;;;;;8.70;8.20;;;;;;;;;;5038850;22;20584;-90
2022/07/25 06:06:14;;;;;;;8.17;7.60;;;;;;;;;;4979391;28;20457;-91
2022/07/25 06:08:41;;;;;;;7.60;7.27;;;;;;;;;;4983857;28;20993;-90
2022/07/25 06:11:07;;;;;;;7.80;7.30;;;;;;;;;;4957497;28;20422;-90
2022/07/25 06:13:35;;;;;;;6.80;6.50;;;;;;;;;;4990096;28;20498;-91
2022/07/25 06:16:10;;;;;;;6.83;6.53;;;;;;;;;;4975057;28;20457;-90
2022/07/25 06:18:39;;;;;;;7.83;7.40;;;;;;;;;;4965686;28;20436;-90
2022/07/25 06:21:05;;;;;;;8.13;7.70;;;;;;;;;;4974134;28;21286;-90
2022/07/25 06:23:44;;;;;;;7.70;7.30;;;;;;;;;;4972919;28;20457;-88
2022/07/25 06:26:10;;;;;;;7.20;6.90;;;;;;;;;;4967180;28;20455;-89
2022/07/25 06:28:47;;;;;;;8.67;8.10;;;;;;;;;;4994619;28;20942;-90
2022/07/25 06:31:14;;;;;;;7.67;7.20;;;;;;;;;;4969615;28;20431;-91
2022/07/25 06:33:40;;;;;;;7.23;6.83;;;;;;;;;;4962223;28;20450;-90
2022/07/25 06:36:37;;;;;;;8.23;7.50;;;;;;;;;;4973997;28;20437;-89
2022/07/25 06:42:09;;;;;;;7.43;6.93;;;;;;;;;;5001531;28;20479;-90
2022/07/25 06:44:36;;;;;;;7.40;7.10;;;;;;;;;;5013508;28;20548;-91
2022/07/25 06:47:04;;;;;;;7.70;7.30;;;;;;;;;;5006463;28;20490;-91
2022/07/25 06:49:33;;;;;;;8.00;7.30;;;;;;;;;;5012615;28;20487;-88
2022/07/25 06:52:00;;;;;;;8.20;7.70;;;;;;;;;;5016605;28;20392;-90
2022/07/25 06:54:29;;;;;;;9.40;8.50;;;;;;;;;;5025841;28;20447;-91
2022/07/25 06:56:55;;;;;;;7.13;6.90;;;;;;;;;;5021071;28;20423;-91
2022/07/25 06:59:24;;;;;;;7.50;7.10;;;;;;;;;;5021343;28;20435;-89
2022/07/25 07:01:53;;;;;;;7.40;6.90;;;;;;;;;;5024213;28;20422;-92
2022/07/25 07:04:19;;;;;;;7.47;7.17;;;;;;;;;;5023540;28;20444;-93
2022/07/25 07:06:52;;;;;;;7.80;7.33;;;;;;;;;;5013751;28;20412;-90
2022/07/25 07:09:18;;;;;;;7.23;6.87;;;;;;;;;;5034965;23;20500;-90
2022/07/25 07:11:58;;;;;;;7.73;7.23;;;;;;;;;;5045105;28;20426;-91
2022/07/25 07:14:27;;;;;;;7.60;7.20;;;;;;;;;;5027581;28;20436;-92
2022/07/25 07:16:57;;;;;;;7.80;7.30;;;;;;;;;;5048681;28;20440;-92
2022/07/25 07:19:23;;;;;;;7.60;7.20;;;;;;;;;;5028179;28;20426;-91
2022/07/25 07:21:53;;;;;;;6.30;6.07;;;;;;;;;;5069325;28;20441;-91
2022/07/25 07:24:23;;;;;;;7.60;7.13;;;;;;;;;;5048481;28;20446;-89
2022/07/25 07:26:55;;;;;;;7.60;7.10;;;;;;;;;;5034536;28;20441;-89
2022/07/25 07:29:21;;;;;;;7.53;7.23;;;;;;;;;;5064565;28;20477;-93
2022/07/25 07:31:52;;;;;;;7.67;7.20;;;;;;;;;;5044144;28;20427;-91
2022/07/25 07:34:38;;;;;;;7.23;6.83;;;;;;;;;;5050433;28;20441;-91
2022/07/25 07:37:31;;;;;;;7.33;7.00;;;;;;;;;;5041005;28;20437;-93
2022/07/25 07:40:25;;;;;;;8.07;7.67;;;;;;;;;;5066203;28;20596;-90
2022/07/25 07:42:52;;;;;;;6.77;6.57;;;;;;;;;;4348992;28;10000729;-93
2022/07/25 07:45:20;;;;;;;7.57;6.97;;;;;;;;;;5040895;28;20218;-91
2022/07/25 07:47:47;;;;;;;8.03;7.50;;;;;;;;;;5060801;28;20434;-91
2022/07/25 07:50:15;;;;;;;7.87;7.47;;;;;;;;;;5080573;23;20522;-90
2022/07/25 07:52:43;;;;;;;7.90;7.50;;;;;;;;;;5052975;28;20537;-91
2022/07/25 07:58:26;;;;;;;8.13;7.87;;;;;;;;;;5072848;28;20479;-91
2022/07/25 08:01:13;;;;;;;7.30;7.00;;;;;;;;;;5093530;28;20467;-90
2022/07/25 08:06:36;;;;;;;7.17;6.87;;;;;;;;;;5049457;22;20981;-91
2022/07/25 08:09:05;;;;;;;7.50;7.10;;;;;;;;;;5031486;28;20439;-90
2022/07/25 08:11:44;;;;;;;8.93;8.03;;;;;;;;;;5083053;23;20509;-90
2022/07/25 08:14:10;;;;;;;7.57;7.27;;;;;;;;;;5013152;28;20514;-87
2022/07/25 08:16:36;;;;;;;7.23;7.00;;;;;;;;;;5012100;28;20434;-92
2022/07/25 08:19:06;;;;;;;8.90;8.23;;;;;;;;;;5022532;28;20436;-91
2022/07/25 08:21:33;;;;;;;7.37;6.97;;;;;;;;;;5011892;28;20508;-89
2022/07/25 08:24:14;;;;;;;7.57;7.20;;;;;;;;;;5030589;28;20443;-91
2022/07/25 08:26:40;;;;;;;7.97;7.47;;;;;;;;;;4989174;28;20428;-91
2022/07/25 08:29:09;;;;;;;7.60;7.00;;;;;;;;;;5021215;28;20467;-92
2022/07/25 08:31:36;;;;;;;8.60;8.10;;;;;;;;;;5010878;28;20443;-92
2022/07/25 08:34:08;;;;;;;7.93;7.43;;;;;;;;;;5026396;28;20482;-92
2022/07/25 08:36:36;;;;;;;8.07;7.67;;;;;;;;;;5009844;28;20434;-92
2022/07/25 08:39:05;;;;;;;8.47;7.97;;;;;;;;;;5037674;28;20435;-90
2022/07/25 08:41:33;;;;;;;7.37;6.97;;;;;;;;;;5032030;28;20577;-85
2022/07/25 08:44:00;;;;;;;7.87;7.47;;;;;;;;;;5024681;28;20427;-89
2022/07/25 08:46:45;;;;;;;;;;;;;;;;;;;;;
2022/07/25 08:49:32;;;;;;;8.07;7.67;;;;;;;;;;5011308;28;20440;-92
2022/07/25 08:51:59;;;;;;;8.17;6.90;;;;;;;;;;5026982;28;20458;-90
2022/07/25 08:54:27;;;;;;;7.47;7.10;;;;;;;;;;4666654;28;10000493;-87
2022/07/25 08:56:53;;;;;;;7.30;7.00;;;;;;;;;;5010887;28;20466;-91
2022/07/25 08:59:28;;;;;;;7.73;7.43;;;;;;;;;;5006738;28;20620;-92
2022/07/25 09:02:09;;;;;;;8.03;7.33;;;;;;;;;;5003296;28;20526;-90
2022/07/25 09:04:37;;;;;;;7.13;6.83;;;;;;;;;;5000373;28;20474;-91
2022/07/25 09:07:06;;;;;;;6.87;6.57;;;;;;;;;;5005212;28;20439;-92
2022/07/25 09:09:38;;;;;;;7.80;7.30;;;;;;;;;;5005460;28;20454;-90
2022/07/25 09:12:15;;;;;;;7.73;7.27;;;;;;;;;;5020301;28;20486;-91
2022/07/25 09:14:50;;;;;;;7.20;6.63;;;;;;;;;;5019784;28;20450;-91
2022/07/25 09:17:25;;;;;;;7.10;6.50;;;;;;;;;;4991414;28;20423;-93
2022/07/25 09:19:55;;;;;;;6.80;6.17;;;;;;;;;;4984236;28;20475;-89
2022/07/25 09:22:22;;;;;;;7.00;6.70;;;;;;;;;;5046209;28;20417;-90
2022/07/25 09:24:48;;;;;;;8.20;7.70;;;;;;;;;;5008889;28;20444;-90
2022/07/25 09:27:25;;;;;;;7.00;6.73;;;;;;;;;;5038353;28;20561;-91
2022/07/25 09:30:21;;;;;;;7.10;6.80;;;;;;;;;;5006630;28;20430;-92
2022/07/25 09:32:59;;;;;;;7.10;6.60;;;;;;;;;;5000906;28;20464;-91
2022/07/25 09:35:32;;;;;;;6.80;6.50;;;;;;;;;;4997225;28;20474;-90
2022/07/25 09:38:19;;;;;;;7.57;7.27;;;;;;;;;;5018010;28;20458;-92
2022/07/25 09:40:54;;;;;;;7.37;6.73;;;;;;;;;;5340510;22;20486;-87
2022/07/25 09:43:22;;;;;;;5.90;5.77;;;;;;;;;;5032558;28;20446;-91
2022/07/25 09:45:49;;;;;;;6.43;6.13;;;;;;;;;;5043477;23;20502;-90
2022/07/25 09:48:17;;;;;;;7.10;6.70;;;;;;;;;;5070070;28;20457;-90
2022/07/25 09:51:05;;;;;;;6.63;6.43;;;;;;;;;;5040279;28;20438;-92
2022/07/25 09:53:35;;;;;;;7.53;7.03;;;;;;;;;;5056594;28;20764;-93
2022/07/25 09:56:04;;;;;;;7.00;6.60;;;;;;;;;;5065769;28;20458;-87
2022/07/25 09:58:30;;;;;;;6.93;6.63;;;;;;;;;;5029394;28;20518;-88
2022/07/25 10:01:23;;;;;;;6.90;6.40;;;;;;;;;;5063678;28;20979;-91
2022/07/25 10:04:17;;;;;;;8.30;7.70;;;;;;;;;;5025811;28;20460;-89
2022/07/25 10:07:03;;;;;;;7.60;7.30;;;;;;;;;;5021394;28;20505;-90
2022/07/25 10:09:55;;;;;;;8.40;8.00;;;;;;;;;;5047620;28;20714;-92
2022/07/25 10:12:25;;;;;;;8.63;8.23;;;;;;;;;;5031492;28;20420;-90
2022/07/25 10:15:07;;;;;;;8.30;7.80;;;;;;;;;;5031635;28;20410;-90
2022/07/25 10:17:38;;;;;;;8.63;8.20;;;;;;;;;;5050001;28;20438;-91
2022/07/25 10:20:08;;;;;;;11.90;8.83;;;;;;;;;;5027581;28;20463;-91
2022/07/25 10:23:03;;;;;;;8.63;8.13;;;;;;;;;;5005460;28;20910;-92
2022/07/25 10:25:32;;;;;;;8.63;8.13;;;;;;;;;;5030485;28;20465;-90
2022/07/25 10:28:02;;;;;;;7.70;7.40;;;;;;;;;;5030642;28;20427;-91
2022/07/25 10:30:36;;;;;;;9.13;8.53;;;;;;;;;;5034238;28;20502;-90
2022/07/25 10:33:03;;;;;;;7.83;7.43;;;;;;;;;;5035183;28;20421;-91
2022/07/25 10:35:35;;;;;;;7.57;7.20;;;;;;;;;;5045122;28;20482;-92
2022/07/25 10:38:03;;;;;;;8.13;7.43;;;;;;;;;;5053438;28;20446;-92
2022/07/25 10:41:07;;;;;;;7.47;6.97;;;;;;;;;;5015289;28;20501;-89
2022/07/25 10:43:46;;;;;;;7.63;7.33;;;;;;;;;;5004094;28;20427;-92
2022/07/25 10:46:17;;;;;;;7.07;6.47;;;;;;;;;;5047285;28;20450;-89
2022/07/25 10:49:15;;;;;;;;;;;;;;;;;;;;;
2022/07/25 10:52:04;;;;;;;6.57;6.20;;;;;;;;;;5026939;28;20490;-91
2022/07/25 10:54:38;;;;;;;6.00;5.90;;;;;;;;;;5025256;23;20483;-90
2022/07/25 10:57:13;;;;;;;6.10;6.00;;;;;;;;;;5013105;28;20426;-89
2022/07/25 11:02:18;;;;;;;4.90;4.80;;;;;;;;;;5233075;23;20490;-93
2022/07/25 11:05:01;;;;;;;6.00;5.60;;;;;;;;;;4684650;28;10000213;-92
2022/07/25 11:07:48;;;;;;;4.80;4.70;;;;;;;;;;5042491;28;20196;-91
2022/07/25 11:10:45;;;;;;;4.13;4.13;;;;;;;;;;5018974;28;20431;-94
2022/07/25 11:13:17;;;;;;;5.00;4.87;;;;;;;;;;5051649;28;20407;-90
2022/07/25 11:15:51;;;;;;;4.90;4.80;;;;;;;;;;5039075;28;20498;-90
2022/07/25 11:18:59;;;;;;;4.90;4.77;;;;;;;;;;5033470;28;20449;-93
2022/07/25 11:21:25;;;;;;;5.10;4.70;;;;;;;;;;5151011;23;20534;-91
2022/07/25 11:40:18;;;;;;;;;;;;;;;;;;;;;
2022/07/25 11:43:24;;;;;;;4.83;4.57;;;;;;;;;;5042430;28;20484;-93
2022/07/25 11:46:07;;;;;;;4.77;4.60;;;;;;;;;;5051762;28;20422;-92
2022/07/25 11:49:06;;;;;;;5.40;4.90;;;;;;;;;;5033249;28;20426;-91
2022/07/25 12:00:05;;;;;;;4.80;4.50;;;;;;;;;;5125065;22;20483;-92
2022/07/25 12:05:28;;;;;;;4.60;4.43;;;;;;;;;;5058657;23;20996;-94
2022/07/25 12:08:03;;;;;;;4.60;4.50;;;;;;;;;;5031071;23;20529;-91
2022/07/25 12:10:47;;;;;;;;;;;;;;;;;;;;;
2022/07/25 12:13:29;;;;;;;4.77;4.40;;;;;;;;;;5033672;28;20509;-93
2022/07/25 12:16:07;;;;;;;;;;;;;;;;;;;;;
2022/07/25 12:19:12;;;;;;;4.03;3.97;;;;;;;;;;5036820;28;20591;-92
2022/07/25 12:21:41;;;;;;;4.93;4.73;;;;;;;;;;5013735;28;20493;-91
2022/07/25 12:24:07;;;;;;;4.70;4.40;;;;;;;;;;5288850;22;20494;-91
2022/07/25 12:31:53;;;;;;;4.30;4.03;;;;;;;;;;4753322;22;20485;-93
2022/07/25 12:34:29;;;;;;;3.57;3.57;;;;;;;;;;5016519;28;20433;-93
2022/07/25 12:36:58;;;;;;;4.53;4.33;;;;;;;;;;5171636;22;20494;-92
2022/07/25 12:39:24;;;;;;;3.67;3.67;;;;;;;;;;5033510;28;20445;-92
2022/07/25 12:41:50;;;;;;;4.00;3.90;;;;;;;;;;5045014;28;20478;-90
2022/07/25 12:44:25;;;;;;;5.23;5.03;;;;;;;;;;5044130;28;20430;-91
2022/07/25 12:47:26;;;;;;;4.53;4.33;;;;;;;;;;5013554;28;20431;-92
2022/07/25 12:49:52;;;;;;;4.30;4.20;;;;;;;;;;5027101;28;20473;-90
2022/07/25 12:52:40;;;;;;;;;;;;;;;;;;;;;
2022/07/25 12:57:54;;;;;;;4.00;3.80;;;;;;;;;;5150403;23;20521;-93
2022/07/25 13:00:25;;;;;;;4.73;4.30;;;;;;;;;;5242762;23;20486;-90
2022/07/25 13:16:28;;;;;;;4.50;4.33;;;;;;;;;;4981744;28;20506;-92
2022/07/25 13:21:30;;;;;;;3.77;3.67;;;;;;;;;;5498314;23;20488;-89
2022/07/25 13:24:25;;;;;;;4.20;4.00;;;;;;;;;;5073908;23;20811;-92
2022/07/25 13:26:54;;;;;;;4.50;4.30;;;;;;;;;;5006086;28;20496;-90
2022/07/25 13:29:40;;;;;;;4.90;4.70;;;;;;;;;;5008481;28;20456;-89
2022/07/25 13:32:12;;;;;;;4.33;4.23;;;;;;;;;;5010763;28;20447;-92
2022/07/25 13:35:06;;;;;;;3.90;3.70;;;;;;;;;;5009429;28;20420;-93
2022/07/25 13:37:58;;;;;;;4.73;4.53;;;;;;;;;;4985752;28;20460;-93
2022/07/25 13:43:18;;;;;;;4.03;3.87;;;;;;;;;;4985436;28;20430;-91
2022/07/25 13:45:45;;;;;;;3.13;2.93;;;;;;;;;;5007120;28;20421;-90
2022/07/25 13:48:32;;;;;;;3.43;3.23;;;;;;;;;;4995156;28;20449;-94
2022/07/25 13:51:04;;;;;;;4.07;3.77;;;;;;;;;;4990530;28;20451;-92
2022/07/25 13:53:31;;;;;;;2.73;2.73;;;;;;;;;;5005571;28;20984;-89
2022/07/25 13:55:58;;;;;;;3.50;3.30;;;;;;;;;;5005278;28;20753;-91
2022/07/25 13:58:36;;;;;;;3.27;3.20;;;;;;;;;;4996487;28;20543;-93
2022/07/25 14:01:02;;;;;;;3.43;3.20;;;;;;;;;;4984982;28;20462;-93
2022/07/25 14:03:29;;;;;;;3.80;3.67;;;;;;;;;;5005725;28;20451;-93
2022/07/25 14:06:00;;;;;;;2.57;2.57;;;;;;;;;;5006658;28;20460;-92
2022/07/25 14:08:26;;;;;;;3.40;3.20;;;;;;;;;;5001193;28;20839;-90
2022/07/25 14:10:53;;;;;;;4.77;2.93;;;;;;;;;;4999618;28;20429;-91
2022/07/25 14:13:19;;;;;;;3.13;3.03;;;;;;;;;;4998543;28;20480;-88
2022/07/25 14:15:45;;;;;;;3.03;3.00;;;;;;;;;;4992934;28;20447;-89
2022/07/25 14:18:14;;;;;;;3.20;3.17;;;;;;;;;;4994133;28;20432;-92
2022/07/25 14:20:40;;;;;;;3.77;3.47;;;;;;;;;;5111753;23;20592;-90
2022/07/25 14:23:06;;;;;;;4.07;3.80;;;;;;;;;;5071453;28;20445;-92
2022/07/25 14:25:38;;;;;;;3.50;3.23;;;;;;;;;;5061663;28;20436;-92
2022/07/25 14:28:10;;;;;;;3.13;2.93;;;;;;;;;;5226994;23;20634;-91
2022/07/25 14:30:36;;;;;;;2.80;2.80;;;;;;;;;;5325401;23;20498;-90
2022/07/25 14:33:05;;;;;;;3.37;3.17;;;;;;;;;;5044694;28;20443;-91
2022/07/25 14:35:32;;;;;;;6.00;3.13;;;;;;;;;;5044015;28;20444;-89
2022/07/25 14:37:58;;;;;;;4.10;4.00;;;;;;;;;;5052990;28;20432;-90
2022/07/25 14:40:24;;;;;;;3.50;3.27;;;;;;;;;;5044346;28;20484;-91
2022/07/25 14:42:50;;;;;;;3.13;2.97;;;;;;;;;;5181886;23;20505;-92
2022/07/25 14:45:17;;;;;;;3.07;2.97;;;;;;;;;;5056911;28;20445;-92
2022/07/25 14:47:43;;;;;;;2.80;2.70;;;;;;;;;;5048423;28;20449;-89
2022/07/25 14:50:10;;;;;;;4.70;2.90;;;;;;;;;;5073400;28;20433;-91
2022/07/25 14:52:36;;;;;;;3.60;2.90;;;;;;;;;;5055614;28;20449;-92
2022/07/25 14:55:02;;;;;;;3.10;3.00;;;;;;;;;;5036075;28;20469;-92
2022/07/25 14:57:28;;;;;;;3.67;3.23;;;;;;;;;;5053183;28;20425;-91
2022/07/25 15:03:05;;;;;;;6.90;2.97;;;;;;;;;;5038565;28;20461;-92
2022/07/25 15:05:34;;;;;;;3.00;2.90;;;;;;;;;;5054787;28;20567;-92
2022/07/25 15:08:00;;;;;;;3.17;2.90;;;;;;;;;;5053453;28;20476;-89
2022/07/25 15:10:26;;;;;;;3.33;3.23;;;;;;;;;;5039682;28;20430;-92
2022/07/25 15:12:54;;;;;;;3.97;3.77;;;;;;;;;;5035195;28;20445;-88
2022/07/25 15:15:23;;;;;;;3.67;3.47;;;;;;;;;;5025657;28;20434;-91
2022/07/25 15:17:52;;;;;;;4.37;3.80;;;;;;;;;;5033598;28;20446;-90
2022/07/25 15:20:20;;;;;;;3.80;3.70;;;;;;;;;;5029771;28;20450;-87
2022/07/25 15:22:54;;;;;;;4.70;4.30;;;;;;;;;;5028561;28;20434;-89
2022/07/25 15:25:20;;;;;;;3.77;3.60;;;;;;;;;;5021054;28;20450;-92
2022/07/25 15:27:46;;;;;;;3.60;3.33;;;;;;;;;;5024767;28;20461;-91
2022/07/25 15:30:12;;;;;;;4.67;4.10;;;;;;;;;;5043748;28;20591;-91
2022/07/25 15:32:39;;;;;;;3.73;3.33;;;;;;;;;;5033937;28;20430;-90
2022/07/25 15:35:14;;;;;;;3.07;2.87;;;;;;;;;;5036267;28;20423;-92
2022/07/25 15:37:48;;;;;;;4.23;3.90;;;;;;;;;;5286109;23;20488;-94
2022/07/25 15:40:22;;;;;;;7.60;3.60;;;;;;;;;;5040361;28;20590;-90
2022/07/25 15:42:48;;;;;;;4.27;3.70;;;;;;;;;;5023572;28;20434;-88
2022/07/25 15:45:19;;;;;;;3.77;3.60;;;;;;;;;;5024105;28;20435;-92
2022/07/25 15:50:28;;;;;;;5.73;3.27;;;;;;;;;;3312147;22;20786;-91
2022/07/25 15:52:58;;;;;;;3.30;3.10;;;;;;;;;;5021182;28;20434;-92
2022/07/25 15:55:53;;;;;;;3.40;3.10;;;;;;;;;;5019948;28;20424;-92
2022/07/25 15:58:19;;;;;;;2.93;2.73;;;;;;;;;;5065363;23;20483;-91
2022/07/25 16:00:47;;;;;;;3.30;3.00;;;;;;;;;;5049229;28;20470;-90
2022/07/25 16:03:26;;;;;;;4.83;3.80;;;;;;;;;;5028555;28;20475;-91
2022/07/25 16:06:22;;;;;;;;;;;;;;;;;;;;;
2022/07/25 16:08:44;;;;;;;2.93;2.83;;;;;;;;;;4683622;28;10000669;-92
2022/07/25 16:11:14;;;;;;;2.70;2.70;;;;;;;;;;5024708;28;20461;-92
2022/07/25 16:14:00;;;;;;;3.90;3.60;;;;;;;;;;5033690;28;20423;-88
2022/07/25 16:16:44;;;;;;;4.93;2.77;;;;;;;;;;5034422;28;20419;-91
2022/07/25 16:19:17;;;;;;;2.90;2.70;;;;;;;;;;5037168;28;21316;-92
2022/07/25 16:21:47;;;;;;;2.87;2.67;;;;;;;;;;5034292;28;20478;-91
2022/07/25 16:24:36;;;;;;;3.10;3.00;;;;;;;;;;5024538;28;20449;-93
2022/07/25 16:27:08;;;;;;;4.20;2.93;;;;;;;;;;5026155;28;20490;-92
2022/07/25 16:29:34;;;;;;;3.90;2.73;;;;;;;;;;5037168;28;20505;-90
2022/07/25 16:32:05;;;;;;;3.00;2.90;;;;;;;;;;5036607;28;20456;-91
2022/07/25 16:34:32;;;;;;;7.53;3.33;;;;;;;;;;5040698;28;20451;-90
2022/07/25 16:37:00;;;;;;;3.33;2.57;;;;;;;;;;5032461;28;20541;-90
2022/07/25 16:39:27;;;;;;;2.90;2.80;;;;;;;;;;5030843;28;20452;-90
2022/07/25 16:41:59;;;;;;;3.77;3.30;;;;;;;;;;5036418;28;20579;-91
2022/07/25 16:44:26;;;;;;;3.20;3.10;;;;;;;;;;5045289;28;20984;-89
2022/07/25 16:46:54;;;;;;;2.97;2.87;;;;;;;;;;5038801;28;20561;-91
2022/07/25 16:49:20;;;;;;;3.23;3.13;;;;;;;;;;5039067;28;20422;-91
2022/07/25 16:51:46;;;;;;;3.50;3.30;;;;;;;;;;5039396;28;20435;-90
2022/07/25 16:54:13;;;;;;;4.77;2.57;;;;;;;;;;5039902;28;20431;-90
2022/07/25 16:56:39;;;;;;;2.43;2.33;;;;;;;;;;5043213;28;20492;-90
2022/07/25 16:59:05;;;;;;;3.13;2.93;;;;;;;;;;5043681;28;20466;-92
2022/07/25 17:01:38;;;;;;;2.47;2.27;;;;;;;;;;5041458;28;20581;-93
2022/07/25 17:04:11;;;;;;;3.30;2.60;;;;;;;;;;5043128;28;20469;-90
2022/07/25 17:06:38;;;;;;;2.23;2.13;;;;;;;;;;5043808;28;20443;-88
2022/07/25 17:11:41;;;;;;;4.13;2.70;;;;;;;;;;5058148;23;20517;-91
2022/07/25 17:14:15;;;;;;;3.50;2.30;;;;;;;;;;5033251;28;20453;-89
2022/07/25 17:16:44;;;;;;;2.67;2.47;;;;;;;;;;5029878;28;20428;-91
2022/07/25 17:19:13;;;;;;;2.43;2.07;;;;;;;;;;5032328;28;20422;-92
2022/07/25 17:21:40;;;;;;;3.20;2.90;;;;;;;;;;5033897;28;20473;-90
2022/07/25 17:24:09;;;;;;;3.00;2.80;;;;;;;;;;5046581;28;20456;-92
2022/07/25 17:26:35;;;;;;;5.60;3.23;;;;;;;;;;5030528;28;20461;-91
2022/07/25 17:31:47;;;;;;;3.27;3.00;;;;;;;;;;5048149;28;20425;-92
2022/07/25 17:34:30;;;;;;;3.40;3.30;;;;;;;;;;5032245;28;20502;-92
2022/07/25 17:37:02;;;;;;;5.53;3.50;;;;;;;;;;5032075;28;20429;-90
2022/07/25 17:39:32;;;;;;;3.53;2.80;;;;;;;;;;5032600;28;20455;-88
2022/07/25 17:42:33;;;;;;;4.10;2.73;;;;;;;;;;5033759;28;20458;-90
2022/07/25 17:45:16;;;;;;;2.97;2.83;;;;;;;;;;5014594;28;20424;-90
2022/07/25 17:47:45;;;;;;;2.47;2.27;;;;;;;;;;5024146;28;20534;-90
2022/07/25 17:50:22;;;;;;;;;;;;;;;;;;;;;
2022/07/25 17:52:58;;;;;;;5.40;2.80;;;;;;;;;;5032910;28;20427;-94
2022/07/25 17:58:19;;;;;;;2.77;2.57;;;;;;;;;;5038160;28;20633;-90
2022/07/25 18:00:47;;;;;;;2.30;2.17;;;;;;;;;;5025467;28;20560;-93
2022/07/25 18:03:17;;;;;;;3.20;3.00;;;;;;;;;;5034256;28;20462;-90
2022/07/25 18:05:50;;;;;;;3.97;2.83;;;;;;;;;;5035920;28;20435;-91
2022/07/25 18:08:18;;;;;;;2.50;2.40;;;;;;;;;;5041824;28;20451;-91
2022/07/25 18:11:03;;;;;;;3.13;2.37;;;;;;;;;;5027951;28;21036;-93
2022/07/25 18:13:38;;;;;;;2.63;2.40;;;;;;;;;;5047203;28;20434;-93
2022/07/25 18:16:12;;;;;;;4.03;2.40;;;;;;;;;;5030406;28;20435;-91
2022/07/25 18:18:47;;;;;;;1.97;1.97;;;;;;;;;;4793667;23;10001995;-93
2022/07/25 18:21:22;;;;;;;3.37;3.10;;;;;;;;;;5070658;28;20225;-92
2022/07/25 18:23:48;;;;;;;4.10;2.40;;;;;;;;;;5075326;28;20440;-92
2022/07/25 18:26:15;;;;;;;1.73;1.70;;;;;;;;;;5087727;28;20425;-89
2022/07/25 18:28:41;;;;;;;2.57;1.93;;;;;;;;;;5092648;28;20448;-92
2022/07/25 18:31:08;;;;;;;2.27;2.17;;;;;;;;;;5076145;28;20485;-89
2022/07/25 18:33:45;;;;;;;2.17;1.90;;;;;;;;;;5092147;28;20441;-91
2022/07/25 18:36:14;;;;;;;4.33;1.50;;;;;;;;;;5068361;28;20452;-89
2022/07/25 18:38:43;;;;;;;2.47;1.80;;;;;;;;;;5087258;28;20448;-92
2022/07/25 18:41:09;;;;;;;3.03;1.70;;;;;;;;;;5089832;28;20552;-92
2022/07/25 18:43:51;;;;;;;1.03;1.03;;;;;;;;;;5074058;28;20442;-91
2022/07/25 18:46:28;;;;;;;2.73;1.63;;;;;;;;;;5070094;28;20504;-90
2022/07/25 18:51:51;;;;;;;4.97;1.20;;;;;;;;;;5434795;23;20511;-91
2022/07/25 18:54:27;;;;;;;2.33;1.17;;;;;;;;;;5019673;28;20446;-89
2022/07/25 18:56:54;;;;;;;4.10;1.03;;;;;;;;;;5034328;28;20481;-91
2022/07/25 18:59:20;;;;;;;6.80;1.47;;;;;;;;;;5019071;28;20455;-91
2022/07/25 19:02:06;;;;;;;1.20;1.07;;;;;;;;;;5056335;28;20470;-91
2022/07/25 19:10:06;;;;;;;1.13;1.13;;;;;;;;;;5178163;22;20556;-91
2022/07/25 19:15:22;;;;;;;3.40;1.97;;;;;;;;;;5267599;22;20492;-91
2022/07/25 19:17:57;;;;;;;1.30;1.30;;;;;;;;;;5018278;28;20454;-91
2022/07/25 19:22:59;;;;;;;2.50;1.20;;;;;;;;;;5328740;23;20472;-87
2022/07/25 19:25:45;;;;;;;2.10;1.00;;;;;;;;;;5082276;23;20466;-91
2022/07/25 19:28:14;;;;;;;5.83;1.17;;;;;;;;;;5039627;28;20531;-93
2022/07/25 19:30:49;;;;;;;1.10;1.10;;;;;;;;;;5055688;28;20513;-92
2022/07/25 20:03:23;;;;;;;;;;;;;;;;;;;;;
2022/07/25 20:24:13;;;;;;;0.80;0.80;;;;;;;;;;5178299;23;20537;-94
2022/07/25 20:26:46;;;;;;;2.73;1.80;;;;;;;;;;5018426;28;20442;-94
2022/07/25 20:29:12;;;;;;;3.20;0.93;;;;;;;;;;5032973;28;20435;-90
2022/07/25 20:31:40;;;;;;;1.57;0.90;;;;;;;;;;5022202;28;20430;-94
2022/07/25 20:34:07;;;;;;;2.67;0.90;;;;;;;;;;5032918;28;20438;-95
2022/07/25 20:36:39;;;;;;;1.10;1.00;;;;;;;;;;5033538;28;20454;-93
2022/07/25 20:39:08;;;;;;;1.10;0.90;;;;;;;;;;5015626;28;20412;-91
2022/07/25 20:41:46;;;;;;;1.73;1.63;;;;;;;;;;5035216;28;20446;-94
2022/07/25 20:44:23;;;;;;;2.17;1.57;;;;;;;;;;5036864;28;20438;-93
2022/07/25 21:17:49;;;;;;;2.13;1.93;;;;;;;;;;5340501;23;20545;-93
2022/07/25 23:13:29;;;;;;;1.20;1.20;;;;;;;;;;5013363;28;20585;-90
2022/07/25 23:15:55;;;;;;;0.93;0.93;;;;;;;;;;5016369;28;20454;-89
2022/07/25 23:18:21;;;;;;;1.20;1.20;;;;;;;;;;5034065;28;20447;-89
2022/07/25 23:20:47;;;;;;;1.50;1.40;;;;;;;;;;5018713;28;21224;-90
2022/07/25 23:23:13;;;;;;;2.67;2.57;;;;;;;;;;5018924;28;20442;-89
2022/07/25 23:25:39;;;;;;;1.60;1.60;;;;;;;;;;5018902;28;20423;-90
2022/07/25 23:28:05;;;;;;;1.83;1.70;;;;;;;;;;5018697;28;20822;-89
2022/07/25 23:30:31;;;;;;;1.60;1.30;;;;;;;;;;5014504;28;20442;-89
2022/07/25 23:32:57;;;;;;;1.53;1.40;;;;;;;;;;5011120;28;20459;-89
2022/07/25 23:35:23;;;;;;;1.80;1.40;;;;;;;;;;5011329;28;20446;-90
2022/07/25 23:37:49;;;;;;;1.90;1.80;;;;;;;;;;5007944;28;20435;-89
2022/07/25 23:40:15;;;;;;;3.63;1.90;;;;;;;;;;5021229;28;20498;-89
2022/07/25 23:42:42;;;;;;;1.50;1.50;;;;;;;;;;5009603;28;20524;-89
2022/07/25 23:45:08;;;;;;;1.70;1.50;;;;;;;;;;5012880;28;20424;-89
2022/07/25 23:47:34;;;;;;;1.60;1.50;;;;;;;;;;5011633;28;20470;-88
2022/07/25 23:50:00;;;;;;;2.87;2.07;;;;;;;;;;5009953;28;20439;-89
2022/07/25 23:52:26;;;;;;;1.43;1.43;;;;;;;;;;5011104;28;20478;-90
2022/07/25 23:54:52;;;;;;;1.30;1.20;;;;;;;;;;5009660;28;20475;-91
2022/07/25 23:57:18;;;;;;;1.90;1.87;;;;;;;;;;5010994;28;20452;-90
2022/07/25 23:59:44;;;;;;;1.40;1.33;;;;;;;;;;5009244;28;20812;-90
